Time;durP1;ratioP1;P1;durP2;ratioP2;P2;SDS_P1;SDS_P2;PMS_P1;PMS_P2;Temp;Humidity;BMP_temperature;BMP_pressure;BME280_temperature;BME280_humidity;BME280_pressure;Samples;Min_cycle;Max_cycle;Signal;HPM_P1;HPM_P2
2023/10/25 00:02:23;;;;;;;29.55;20.98;;;15.10;99.90;;;;;;5037307;28;20059;-89
2023/10/25 00:04:55;;;;;;;36.97;23.70;;;15.10;99.90;;;;;;5038411;28;20026;-90
2023/10/25 00:07:21;;;;;;;69.10;32.80;;;15.10;99.90;;;;;;5037376;28;20045;-90
2023/10/25 00:09:47;;;;;;;43.72;27.65;;;15.20;99.90;;;;;;5040410;28;20077;-90
2023/10/25 00:12:13;;;;;;;45.63;27.52;;;15.30;99.90;;;;;;5034844;28;20483;-90
2023/10/25 00:14:39;;;;;;;64.13;31.25;;;15.20;99.90;;;;;;5037037;28;20032;-89
2023/10/25 00:17:05;;;;;;;54.95;31.70;;;15.30;99.90;;;;;;5038942;28;20025;-90
2023/10/25 00:19:31;;;;;;;72.50;35.92;;;15.30;99.90;;;;;;5039980;28;20028;-90
2023/10/25 00:21:56;;;;;;;50.28;33.08;;;15.30;99.90;;;;;;5038375;28;20035;-90
2023/10/25 00:24:23;;;;;;;53.78;32.63;;;15.30;99.90;;;;;;5036978;28;20033;-90
2023/10/25 00:26:49;;;;;;;73.80;33.28;;;15.30;99.90;;;;;;5037183;28;20448;-89
2023/10/25 00:29:15;;;;;;;330.23;51.33;;;15.30;99.90;;;;;;5124581;27;20034;-89
2023/10/25 00:31:40;;;;;;;63.08;34.00;;;15.40;99.90;;;;;;5040783;28;20414;-89
2023/10/25 00:34:06;;;;;;;73.82;32.50;;;15.30;99.90;;;;;;5039271;28;20018;-89
2023/10/25 00:36:32;;;;;;;48.15;27.95;;;15.30;99.90;;;;;;5038154;28;20045;-89
2023/10/25 00:38:57;;;;;;;61.80;25.40;;;15.30;99.90;;;;;;5041819;28;20068;-90
2023/10/25 00:41:24;;;;;;;35.53;21.88;;;15.20;99.90;;;;;;5127705;27;20177;-89
2023/10/25 00:43:50;;;;;;;31.42;20.67;;;15.20;99.90;;;;;;5038346;28;20036;-90
2023/10/25 00:46:20;;;;;;;22.00;15.77;;;15.30;99.90;;;;;;5040626;28;20065;-89
2023/10/25 00:48:47;;;;;;;17.67;12.95;;;15.20;99.90;;;;;;5040601;28;20037;-89
2023/10/25 00:51:15;;;;;;;19.92;12.75;;;15.20;99.90;;;;;;5035287;28;20094;-89
2023/10/25 00:53:42;;;;;;;14.93;11.85;;;15.20;99.90;;;;;;5042190;28;20017;-89
2023/10/25 00:56:11;;;;;;;18.77;12.52;;;15.10;99.90;;;;;;5042581;28;20032;-89
2023/10/25 00:58:42;;;;;;;20.05;14.30;;;15.10;99.90;;;;;;5041176;28;20021;-90
2023/10/25 01:01:08;;;;;;;19.67;14.27;;;15.00;99.90;;;;;;5040365;28;20055;-89
2023/10/25 01:03:34;;;;;;;24.98;14.93;;;15.00;99.90;;;;;;5040233;28;20075;-90
2023/10/25 01:06:02;;;;;;;20.20;15.02;;;15.00;99.90;;;;;;5036498;28;20038;-89
2023/10/25 01:08:28;;;;;;;20.23;14.85;;;15.00;99.90;;;;;;5041010;28;20026;-89
2023/10/25 01:10:54;;;;;;;22.60;15.77;;;15.00;99.90;;;;;;5042000;28;20036;-90
2023/10/25 01:13:22;;;;;;;20.42;14.95;;;15.00;99.90;;;;;;5035534;28;20036;-90
2023/10/25 01:15:48;;;;;;;28.17;18.38;;;15.00;99.90;;;;;;5044330;28;20165;-89
2023/10/25 01:18:14;;;;;;;28.73;19.40;;;15.10;99.90;;;;;;5037629;28;20025;-89
2023/10/25 01:20:41;;;;;;;30.10;20.10;;;15.10;99.90;;;;;;5041152;28;20025;-89
2023/10/25 01:23:07;;;;;;;34.42;19.00;;;15.10;99.90;;;;;;5036150;28;20112;-89
2023/10/25 01:25:33;;;;;;;25.08;17.30;;;15.10;99.90;;;;;;5040747;28;20024;-89
2023/10/25 01:27:59;;;;;;;29.35;17.63;;;15.10;99.90;;;;;;5041773;28;20094;-89
2023/10/25 01:30:26;;;;;;;42.83;19.17;;;15.00;99.90;;;;;;5125925;27;20480;-89
2023/10/25 01:32:52;;;;;;;36.25;19.40;;;15.00;99.90;;;;;;5038406;28;20060;-89
2023/10/25 01:35:18;;;;;;;88.10;24.55;;;15.00;99.90;;;;;;5034840;28;20022;-89
2023/10/25 01:37:44;;;;;;;65.55;21.90;;;14.90;99.90;;;;;;5036401;28;20048;-90
2023/10/25 01:40:10;;;;;;;29.80;20.95;;;14.90;99.90;;;;;;5042738;28;20043;-90
2023/10/25 01:42:36;;;;;;;42.05;22.17;;;14.90;99.90;;;;;;5037716;28;20081;-90
2023/10/25 01:45:02;;;;;;;33.95;17.17;;;14.90;99.90;;;;;;5039220;28;20025;-90
2023/10/25 01:47:28;;;;;;;16.83;12.20;;;14.90;99.90;;;;;;5040908;28;20018;-89
2023/10/25 01:49:54;;;;;;;11.60;8.27;;;14.90;99.90;;;;;;5043044;28;20021;-90
2023/10/25 01:52:20;;;;;;;8.38;6.80;;;14.80;99.90;;;;;;5041603;28;20026;-90
2023/10/25 01:54:46;;;;;;;7.78;6.57;;;14.70;99.90;;;;;;5041416;28;20025;-89
2023/10/25 01:57:12;;;;;;;13.82;8.85;;;14.80;99.90;;;;;;5039631;28;20472;-90
2023/10/25 01:59:38;;;;;;;12.10;9.25;;;14.80;99.90;;;;;;5039352;28;20026;-90
2023/10/25 02:02:04;;;;;;;12.10;9.35;;;14.80;99.90;;;;;;5039990;28;20025;-90
2023/10/25 02:04:30;;;;;;;14.60;9.68;;;14.70;99.90;;;;;;5046236;28;20029;-90
2023/10/25 02:06:56;;;;;;;12.88;10.00;;;14.70;99.90;;;;;;5033964;28;20502;-90
2023/10/25 02:09:22;;;;;;;16.63;10.77;;;14.70;99.90;;;;;;5132322;27;20030;-90
2023/10/25 02:11:48;;;;;;;19.33;12.25;;;14.80;99.90;;;;;;5044106;28;20029;-91
2023/10/25 02:14:14;;;;;;;31.83;14.43;;;14.80;99.90;;;;;;5036521;28;20464;-90
2023/10/25 02:16:39;;;;;;;37.47;15.60;;;14.80;99.90;;;;;;5043000;28;20033;-90
2023/10/25 02:19:05;;;;;;;27.52;13.68;;;14.80;99.90;;;;;;5041473;28;20045;-90
2023/10/25 02:21:35;;;;;;;28.20;15.13;;;14.80;99.90;;;;;;5127410;27;20033;-89
2023/10/25 02:24:05;;;;;;;78.72;20.75;;;14.80;99.90;;;;;;5041075;28;20056;-90
2023/10/25 02:26:30;;;;;;;27.42;15.95;;;14.70;99.90;;;;;;5044761;28;20417;-90
2023/10/25 02:28:58;;;;;;;41.70;18.50;;;14.70;99.90;;;;;;5045423;28;20029;-90
2023/10/25 02:31:23;;;;;;;28.83;17.48;;;14.80;99.90;;;;;;5043822;28;20021;-90
2023/10/25 02:33:49;;;;;;;27.92;18.17;;;14.80;99.90;;;;;;5043607;28;20376;-89
2023/10/25 02:36:15;;;;;;;30.20;18.23;;;14.80;99.90;;;;;;5042296;28;20446;-89
2023/10/25 02:38:40;;;;;;;28.27;17.35;;;14.80;99.90;;;;;;5046533;28;20420;-90
2023/10/25 02:41:06;;;;;;;20.70;14.10;;;14.80;99.90;;;;;;5042936;28;20025;-89
2023/10/25 02:43:32;;;;;;;20.65;12.45;;;14.80;99.90;;;;;;5039072;28;20073;-90
2023/10/25 02:46:08;;;;;;;14.70;10.50;;;14.80;99.90;;;;;;5043648;28;20036;-89
2023/10/25 02:48:34;;;;;;;14.95;11.13;;;14.80;99.90;;;;;;5042324;28;20074;-87
2023/10/25 02:51:00;;;;;;;15.38;11.07;;;14.70;99.90;;;;;;5042218;28;20029;-90
2023/10/25 02:53:26;;;;;;;11.57;8.90;;;14.70;99.90;;;;;;5039754;28;20025;-89
2023/10/25 02:56:02;;;;;;;7.93;7.20;;;14.70;99.90;;;;;;5038931;28;20062;-89
2023/10/25 02:58:28;;;;;;;13.07;7.00;;;14.70;99.90;;;;;;5038953;28;20017;-89
2023/10/25 03:00:56;;;;;;;7.20;5.53;;;14.70;99.90;;;;;;5041928;28;20037;-89
2023/10/25 03:03:22;;;;;;;6.38;5.78;;;14.80;99.90;;;;;;5041951;28;20021;-89
2023/10/25 03:05:48;;;;;;;7.63;5.15;;;14.80;99.90;;;;;;5041219;28;20029;-89
2023/10/25 03:08:14;;;;;;;9.57;4.65;;;14.70;99.90;;;;;;5038990;28;20018;-90
2023/10/25 03:10:39;;;;;;;7.82;5.10;;;14.70;99.90;;;;;;5038389;28;20448;-89
2023/10/25 03:13:05;;;;;;;5.13;4.63;;;14.60;99.90;;;;;;5035701;28;20022;-90
2023/10/25 03:15:31;;;;;;;5.60;4.72;;;14.60;99.90;;;;;;5048427;28;20021;-89
2023/10/25 03:17:56;;;;;;;11.77;6.68;;;14.60;99.90;;;;;;5038729;28;20021;-87
2023/10/25 03:20:22;;;;;;;11.18;7.88;;;14.40;99.90;;;;;;5039530;28;20029;-89
2023/10/25 03:22:48;;;;;;;13.48;9.77;;;14.30;99.90;;;;;;5039024;28;20030;-90
2023/10/25 03:25:14;;;;;;;14.23;9.75;;;14.40;99.90;;;;;;5043735;28;20029;-89
2023/10/25 03:27:40;;;;;;;12.70;8.13;;;14.40;99.90;;;;;;5041420;28;20021;-89
2023/10/25 03:30:06;;;;;;;11.80;9.30;;;14.30;99.90;;;;;;5037545;28;20029;-88
2023/10/25 03:32:32;;;;;;;10.35;8.52;;;14.30;99.90;;;;;;5045851;28;20535;-89
2023/10/25 03:34:57;;;;;;;10.55;8.10;;;14.30;99.90;;;;;;5041185;28;20121;-88
2023/10/25 03:37:23;;;;;;;17.10;9.75;;;14.30;99.90;;;;;;5038263;28;20103;-90
2023/10/25 03:39:49;;;;;;;12.38;9.43;;;14.20;99.90;;;;;;5039561;28;20032;-89
2023/10/25 03:42:15;;;;;;;26.90;11.38;;;14.10;99.90;;;;;;5037647;28;20745;-90
2023/10/25 03:44:40;;;;;;;14.38;10.80;;;14.10;99.90;;;;;;5036530;28;20048;-89
2023/10/25 03:47:06;;;;;;;16.13;10.90;;;14.10;99.90;;;;;;5038594;28;20030;-89
2023/10/25 03:49:32;;;;;;;20.35;10.90;;;14.00;99.90;;;;;;5043155;28;20036;-89
2023/10/25 03:51:57;;;;;;;14.35;10.10;;;14.00;99.90;;;;;;5038900;28;21081;-88
2023/10/25 03:54:23;;;;;;;8.63;7.82;;;14.00;99.90;;;;;;5039424;28;20033;-89
2023/10/25 03:56:49;;;;;;;8.13;7.30;;;13.90;99.90;;;;;;5038389;28;20021;-89
2023/10/25 03:59:15;;;;;;;11.20;8.02;;;13.90;99.90;;;;;;5037581;28;20104;-89
2023/10/25 04:01:41;;;;;;;10.73;7.95;;;13.80;99.90;;;;;;5040560;28;20030;-89
2023/10/25 04:04:09;;;;;;;7.90;7.10;;;13.80;99.90;;;;;;5038967;28;20082;-89
2023/10/25 04:06:35;;;;;;;10.80;7.18;;;13.80;99.90;;;;;;5042213;28;20489;-88
2023/10/25 04:09:01;;;;;;;7.65;6.93;;;13.70;99.90;;;;;;5040488;28;20040;-88
2023/10/25 04:11:27;;;;;;;6.32;5.72;;;13.70;99.90;;;;;;5041011;28;20017;-89
2023/10/25 04:13:53;;;;;;;7.18;6.20;;;13.70;99.90;;;;;;5039507;28;20109;-89
2023/10/25 04:16:18;;;;;;;6.90;6.25;;;13.70;99.90;;;;;;5039512;28;20105;-89
2023/10/25 04:18:44;;;;;;;7.93;6.40;;;13.60;99.90;;;;;;5041880;28;20085;-89
2023/10/25 04:21:11;;;;;;;10.55;5.43;;;13.50;99.90;;;;;;5037988;28;20433;-89
2023/10/25 04:23:37;;;;;;;4.90;4.47;;;13.50;99.90;;;;;;5037643;28;20029;-89
2023/10/25 04:26:14;;;;;;;4.60;4.07;;;13.50;99.90;;;;;;5038538;28;20034;-89
2023/10/25 04:28:41;;;;;;;6.35;3.53;;;13.50;99.90;;;;;;5039017;28;20108;-90
2023/10/25 04:31:07;;;;;;;3.45;3.25;;;13.50;99.90;;;;;;5040288;28;20029;-89
2023/10/25 04:33:33;;;;;;;5.95;2.30;;;13.40;99.90;;;;;;5039995;28;20025;-89
2023/10/25 04:35:58;;;;;;;4.30;2.20;;;13.40;99.90;;;;;;5038409;28;20057;-90
2023/10/25 04:38:24;;;;;;;2.53;1.48;;;13.40;99.90;;;;;;5040167;28;20033;-89
2023/10/25 04:40:51;;;;;;;4.07;1.67;;;13.50;99.90;;;;;;5036689;28;20025;-89
2023/10/25 04:43:17;;;;;;;4.18;1.17;;;13.60;99.90;;;;;;5039243;28;20109;-89
2023/10/25 04:45:43;;;;;;;3.97;1.17;;;13.60;99.90;;;;;;5041148;28;20037;-89
2023/10/25 04:48:08;;;;;;;3.83;1.48;;;13.70;99.90;;;;;;5041640;28;20017;-89
2023/10/25 04:50:36;;;;;;;1.70;1.27;;;13.70;99.90;;;;;;5038821;28;20029;-89
2023/10/25 04:53:02;;;;;;;3.22;1.20;;;13.70;99.90;;;;;;5041121;28;20487;-88
2023/10/25 04:55:30;;;;;;;5.03;1.35;;;13.80;99.90;;;;;;5038240;28;20029;-89
2023/10/25 04:57:56;;;;;;;6.28;1.42;;;13.80;99.90;;;;;;5040825;28;20025;-90
2023/10/25 05:00:22;;;;;;;1.77;1.55;;;13.80;99.90;;;;;;5043028;28;20024;-90
2023/10/25 05:02:48;;;;;;;7.45;1.40;;;13.80;99.90;;;;;;5037484;28;20029;-90
2023/10/25 05:05:14;;;;;;;4.85;1.27;;;13.80;99.90;;;;;;5040091;28;20032;-89
2023/10/25 05:07:40;;;;;;;3.95;1.20;;;13.90;99.90;;;;;;5037266;28;20065;-89
2023/10/25 05:10:07;;;;;;;3.45;1.13;;;13.90;99.90;;;;;;5043974;28;20064;-88
2023/10/25 05:12:53;;;;;;;3.28;1.60;;;13.90;99.90;;;;;;5041928;28;20468;-89
2023/10/25 05:15:20;;;;;;;1.88;1.40;;;13.80;99.90;;;;;;5032200;28;20033;-90
2023/10/25 05:17:47;;;;;;;2.63;1.35;;;13.80;99.90;;;;;;5038618;28;20026;-89
2023/10/25 05:20:13;;;;;;;2.65;1.20;;;13.90;99.90;;;;;;5038903;28;20029;-90
2023/10/25 05:22:48;;;;;;;1.65;1.17;;;13.90;99.90;;;;;;5031779;28;20474;-89
2023/10/25 05:25:15;;;;;;;2.50;1.05;;;13.90;99.90;;;;;;5039625;28;20075;-89
2023/10/25 05:27:41;;;;;;;3.17;1.55;;;13.90;99.90;;;;;;5033404;28;20030;-89
2023/10/25 05:30:10;;;;;;;3.63;1.35;;;13.80;99.90;;;;;;5020596;28;20025;-89
2023/10/25 05:32:37;;;;;;;2.30;1.30;;;13.80;99.90;;;;;;5034255;28;20058;-90
2023/10/25 05:35:05;;;;;;;4.55;1.30;;;13.80;99.90;;;;;;5038472;28;20025;-90
2023/10/25 05:37:31;;;;;;;2.17;1.30;;;13.80;99.90;;;;;;5039892;28;20149;-89
2023/10/25 05:39:57;;;;;;;2.63;1.30;;;13.80;99.90;;;;;;5040990;28;20116;-90
2023/10/25 05:42:24;;;;;;;3.40;1.25;;;13.90;99.90;;;;;;5036892;28;20073;-90
2023/10/25 05:44:53;;;;;;;3.72;1.35;;;13.80;99.90;;;;;;5031954;28;20393;-90
2023/10/25 05:47:23;;;;;;;2.75;1.52;;;13.80;99.90;;;;;;5033315;28;20108;-89
2023/10/25 05:49:50;;;;;;;3.30;1.45;;;13.90;99.90;;;;;;5039542;28;20098;-90
2023/10/25 05:52:16;;;;;;;2.13;1.38;;;13.80;99.90;;;;;;5034109;28;20025;-90
2023/10/25 05:54:42;;;;;;;2.17;1.20;;;13.80;99.90;;;;;;5041506;28;20033;-89
2023/10/25 05:57:08;;;;;;;3.63;1.13;;;13.80;99.90;;;;;;5036950;28;20048;-90
2023/10/25 05:59:34;;;;;;;3.42;1.10;;;13.90;99.90;;;;;;5032593;28;20109;-89
2023/10/25 06:02:11;;;;;;;5.47;1.50;;;13.90;99.90;;;;;;5039916;28;20040;-90
2023/10/25 06:04:39;;;;;;;2.28;1.35;;;13.90;99.90;;;;;;5039660;28;20025;-90
2023/10/25 06:07:06;;;;;;;4.30;1.20;;;13.90;99.90;;;;;;5035342;28;20552;-90
2023/10/25 06:09:32;;;;;;;2.10;1.00;;;13.90;99.90;;;;;;5037526;28;20026;-90
2023/10/25 06:11:58;;;;;;;2.83;1.45;;;14.00;99.90;;;;;;5041091;28;20025;-90
2023/10/25 06:14:24;;;;;;;3.50;1.75;;;14.00;99.90;;;;;;5040526;28;20533;-90
2023/10/25 06:16:50;;;;;;;5.53;3.15;;;14.00;99.90;;;;;;5016316;28;20053;-90
2023/10/25 06:19:16;;;;;;;5.45;3.60;;;14.00;99.90;;;;;;5029875;28;20458;-90
2023/10/25 06:21:41;;;;;;;6.18;3.85;;;14.00;99.90;;;;;;5029837;28;20049;-90
2023/10/25 06:24:08;;;;;;;6.95;6.35;;;14.00;99.90;;;;;;5029003;28;20039;-90
2023/10/25 06:26:33;;;;;;;9.05;6.10;;;14.00;99.90;;;;;;5048318;28;20437;-90
2023/10/25 06:28:59;;;;;;;6.18;5.60;;;14.00;99.90;;;;;;5049896;28;20025;-90
2023/10/25 06:31:25;;;;;;;9.88;5.68;;;14.00;99.90;;;;;;5049770;28;20495;-90
2023/10/25 06:33:50;;;;;;;8.82;6.20;;;14.00;99.90;;;;;;5042345;28;20026;-90
2023/10/25 06:36:17;;;;;;;5.53;5.10;;;14.10;99.90;;;;;;5049477;28;20029;-90
2023/10/25 06:38:43;;;;;;;6.60;5.95;;;14.10;99.90;;;;;;5044993;28;20388;-90
2023/10/25 06:41:19;;;;;;;5.53;5.03;;;14.10;99.90;;;;;;5035613;28;20161;-90
2023/10/25 06:43:46;;;;;;;12.52;5.90;;;14.10;99.90;;;;;;5040076;28;20108;-89
2023/10/25 06:46:12;;;;;;;9.50;5.95;;;14.10;99.90;;;;;;5048043;28;20018;-90
2023/10/25 06:48:41;;;;;;;7.20;5.40;;;14.10;99.90;;;;;;5031905;28;20028;-89
2023/10/25 06:51:08;;;;;;;6.50;5.88;;;14.10;99.90;;;;;;5045738;28;20396;-89
2023/10/25 06:53:38;;;;;;;6.00;5.40;;;14.20;99.90;;;;;;5036554;28;20488;-90
2023/10/25 06:56:05;;;;;;;8.15;6.28;;;14.10;99.90;;;;;;5043235;28;20028;-90
2023/10/25 06:58:31;;;;;;;5.82;5.32;;;14.10;99.90;;;;;;5032912;28;20066;-92
2023/10/25 07:00:57;;;;;;;10.02;5.97;;;14.20;99.90;;;;;;5051014;28;20025;-92
2023/10/25 07:03:34;;;;;;;6.93;5.68;;;14.20;99.90;;;;;;5051664;28;20429;-90
2023/10/25 07:06:03;;;;;;;6.07;5.60;;;14.20;99.90;;;;;;5052618;28;20033;-92
2023/10/25 07:08:32;;;;;;;7.05;5.30;;;14.20;99.90;;;;;;5036275;28;20053;-91
2023/10/25 07:11:03;;;;;;;6.60;5.75;;;14.30;99.90;;;;;;5043768;28;20097;-91
2023/10/25 07:13:29;;;;;;;4.83;4.43;;;14.30;99.90;;;;;;5038992;28;20022;-91
2023/10/25 07:15:56;;;;;;;8.27;3.90;;;14.40;99.90;;;;;;5031664;28;20025;-90
2023/10/25 07:18:22;;;;;;;3.15;2.55;;;14.40;99.90;;;;;;5031544;28;20026;-91
2023/10/25 07:20:48;;;;;;;4.32;2.20;;;14.40;99.90;;;;;;5037547;28;20057;-91
2023/10/25 07:23:14;;;;;;;5.82;2.08;;;14.50;99.90;;;;;;5051597;28;20072;-90
2023/10/25 07:25:39;;;;;;;3.15;2.13;;;14.50;99.90;;;;;;5033255;28;20034;-91
2023/10/25 07:28:06;;;;;;;2.10;1.75;;;14.60;99.90;;;;;;5042489;28;20029;-92
2023/10/25 07:30:33;;;;;;;4.68;2.58;;;14.60;99.90;;;;;;5044228;28;20063;-91
2023/10/25 07:32:59;;;;;;;4.82;3.13;;;14.70;99.90;;;;;;5031396;28;20087;-92
2023/10/25 07:35:24;;;;;;;4.82;4.13;;;14.70;99.90;;;;;;5035912;28;20035;-92
2023/10/25 07:37:50;;;;;;;5.68;4.45;;;14.70;99.90;;;;;;5030086;28;20053;-91
2023/10/25 07:40:16;;;;;;;4.18;3.78;;;14.80;99.90;;;;;;5026988;28;20026;-91
2023/10/25 07:42:42;;;;;;;4.53;3.58;;;14.80;99.90;;;;;;5037125;28;20508;-92
2023/10/25 07:45:08;;;;;;;3.50;2.15;;;14.80;99.90;;;;;;5037789;28;20109;-92
2023/10/25 07:47:33;;;;;;;2.63;2.03;;;14.80;99.90;;;;;;5045951;28;20032;-91
2023/10/25 07:49:59;;;;;;;3.88;1.98;;;14.80;99.90;;;;;;5050966;28;20484;-92
2023/10/25 07:52:27;;;;;;;3.72;2.10;;;14.90;99.90;;;;;;5035269;28;20071;-90
2023/10/25 07:54:53;;;;;;;6.57;4.20;;;14.90;99.90;;;;;;5033152;28;20022;-90
2023/10/25 07:57:19;;;;;;;4.30;3.90;;;14.90;99.90;;;;;;5033295;28;20033;-91
2023/10/25 07:59:45;;;;;;;4.35;4.00;;;14.90;99.90;;;;;;5030851;28;20028;-92
2023/10/25 08:02:11;;;;;;;4.38;4.07;;;14.90;99.90;;;;;;5051070;28;20063;-91
2023/10/25 08:04:37;;;;;;;5.60;5.20;;;14.90;99.90;;;;;;5043582;28;20017;-91
2023/10/25 08:07:03;;;;;;;5.97;5.47;;;15.00;99.90;;;;;;5030953;28;20410;-91
2023/10/25 08:09:30;;;;;;;8.52;6.15;;;15.00;99.90;;;;;;5031759;28;20496;-92
2023/10/25 08:11:55;;;;;;;9.90;7.22;;;15.10;99.90;;;;;;5030900;28;20124;-91
2023/10/25 08:14:21;;;;;;;14.40;10.25;;;15.10;99.90;;;;;;5010938;28;20052;-91
2023/10/25 08:16:47;;;;;;;14.18;11.70;;;15.10;99.90;;;;;;5025980;28;20027;-91
2023/10/25 08:19:12;;;;;;;17.02;13.60;;;15.10;99.90;;;;;;5135537;27;20027;-91
2023/10/25 08:21:38;;;;;;;23.58;15.70;;;15.00;99.90;;;;;;5046920;28;20033;-92
2023/10/25 08:24:08;;;;;;;20.65;14.82;;;14.80;99.90;;;;;;5037386;28;20021;-91
2023/10/25 08:26:39;;;;;;;14.95;13.38;;;14.80;99.90;;;;;;5032518;28;20053;-90
2023/10/25 08:29:05;;;;;;;14.18;12.70;;;14.80;99.90;;;;;;5040221;28;20100;-91
2023/10/25 08:31:31;;;;;;;28.58;14.98;;;14.80;99.90;;;;;;5035862;28;20025;-91
2023/10/25 08:33:57;;;;;;;49.38;15.20;;;14.80;99.90;;;;;;5034747;28;20037;-91
2023/10/25 08:36:23;;;;;;;17.42;13.95;;;14.70;99.90;;;;;;5034129;28;20045;-90
2023/10/25 08:38:49;;;;;;;18.73;14.10;;;14.70;99.90;;;;;;5124591;27;20021;-91
2023/10/25 08:41:17;;;;;;;19.75;13.35;;;14.70;99.90;;;;;;5035654;28;20033;-91
2023/10/25 08:43:43;;;;;;;133.43;17.33;;;14.80;99.90;;;;;;5034659;27;20450;-91
2023/10/25 08:46:10;;;;;;;54.55;15.45;;;14.80;99.90;;;;;;5030751;28;20031;-91
2023/10/25 08:48:35;;;;;;;31.80;14.05;;;14.80;99.90;;;;;;5036955;28;20030;-91
2023/10/25 08:51:03;;;;;;;17.75;13.60;;;14.80;99.90;;;;;;5035132;28;20489;-91
2023/10/25 08:53:30;;;;;;;18.80;14.05;;;14.80;99.90;;;;;;5038082;28;20044;-91
2023/10/25 08:55:56;;;;;;;15.48;12.32;;;14.80;99.90;;;;;;5034612;28;20026;-91
2023/10/25 08:58:24;;;;;;;17.88;12.40;;;14.90;99.90;;;;;;5036905;28;20476;-91
2023/10/25 09:00:50;;;;;;;15.20;13.35;;;14.90;99.90;;;;;;5037080;28;20397;-91
2023/10/25 09:03:46;;;;;;;15.40;13.80;;;15.00;99.90;;;;;;5034595;28;20025;-91
2023/10/25 09:06:22;;;;;;;15.50;12.25;;;15.10;99.90;;;;;;5036202;28;20033;-91
2023/10/25 09:08:58;;;;;;;19.67;14.13;;;15.10;99.90;;;;;;5037904;28;20498;-91
2023/10/25 09:11:23;;;;;;;14.98;13.38;;;15.10;99.90;;;;;;5032416;28;20023;-92
2023/10/25 09:13:56;;;;;;;15.50;12.02;;;15.10;99.90;;;;;;5121620;27;20025;-91
2023/10/25 09:16:25;;;;;;;13.90;12.45;;;15.20;99.90;;;;;;5031431;28;20109;-90
2023/10/25 09:18:51;;;;;;;14.02;11.55;;;15.20;99.90;;;;;;5045346;28;20030;-90
2023/10/25 09:21:27;;;;;;;14.27;11.05;;;15.30;99.90;;;;;;5037692;28;20036;-91
2023/10/25 09:23:59;;;;;;;14.98;11.18;;;15.40;99.90;;;;;;5036613;28;20030;-91
2023/10/25 09:26:25;;;;;;;15.43;12.35;;;15.50;99.90;;;;;;5036831;28;20032;-91
2023/10/25 09:28:54;;;;;;;14.25;11.48;;;15.60;99.90;;;;;;5041175;28;20039;-90
2023/10/25 09:31:25;;;;;;;11.05;9.95;;;15.70;99.90;;;;;;5037635;28;20061;-91
2023/10/25 09:33:52;;;;;;;13.95;10.77;;;15.80;99.90;;;;;;5046831;28;20025;-91
2023/10/25 09:36:21;;;;;;;14.85;10.70;;;15.90;99.90;;;;;;5040994;28;20045;-91
2023/10/25 09:38:51;;;;;;;12.30;10.38;;;16.00;99.90;;;;;;5040681;28;20024;-91
2023/10/25 09:41:17;;;;;;;13.88;10.85;;;16.00;99.90;;;;;;5046406;28;20029;-91
2023/10/25 09:43:47;;;;;;;15.07;10.65;;;16.10;99.90;;;;;;5038238;28;20033;-91
2023/10/25 09:46:19;;;;;;;11.07;9.30;;;16.20;99.90;;;;;;5037100;28;20026;-90
2023/10/25 09:48:55;;;;;;;10.05;8.15;;;16.30;99.90;;;;;;5035244;28;20048;-91
2023/10/25 09:52:16;;;;;;;13.27;9.48;;;16.30;99.90;;;;;;5036632;28;20029;-91
2023/10/25 09:54:51;;;;;;;14.10;11.20;;;16.40;99.90;;;;;;5001751;28;20026;-91
2023/10/25 09:57:18;;;;;;;10.75;9.65;;;16.40;99.90;;;;;;5028315;28;20480;-90
2023/10/25 09:59:45;;;;;;;15.40;12.13;;;16.40;99.90;;;;;;5035784;28;20033;-90
2023/10/25 10:02:53;;;;;;;17.90;11.85;;;16.50;99.90;;;;;;5034312;28;20052;-89
2023/10/25 10:05:26;;;;;;;12.50;10.75;;;16.40;99.90;;;;;;5019384;28;20021;-89
2023/10/25 10:08:12;;;;;;;13.93;11.15;;;16.50;99.90;;;;;;5031435;28;20021;-88
2023/10/25 10:10:52;;;;;;;14.82;10.63;;;16.50;99.90;;;;;;5017138;28;20038;-88
2023/10/25 10:13:19;;;;;;;12.15;10.30;;;16.40;99.90;;;;;;5037221;28;20026;-89
2023/10/25 10:16:08;;;;;;;17.60;12.20;;;16.50;99.90;;;;;;5047059;28;20018;-88
2023/10/25 10:18:35;;;;;;;12.95;11.52;;;16.50;99.90;;;;;;5033893;28;20053;-89
2023/10/25 10:21:05;;;;;;;16.48;10.82;;;16.70;99.90;;;;;;5040165;28;20025;-89
2023/10/25 10:23:38;;;;;;;12.40;11.05;;;16.70;99.90;;;;;;5041162;28;20029;-88
2023/10/25 10:26:04;;;;;;;16.25;11.15;;;16.70;99.90;;;;;;5018474;28;20030;-89
2023/10/25 10:28:46;;;;;;;14.80;12.38;;;16.70;99.90;;;;;;5039479;28;20063;-89
2023/10/25 10:31:13;;;;;;;16.27;12.75;;;16.70;99.90;;;;;;5037343;28;20025;-89
2023/10/25 10:33:49;;;;;;;16.75;13.65;;;16.70;99.90;;;;;;5033799;28;20029;-89
2023/10/25 10:36:24;;;;;;;15.27;13.65;;;16.60;99.90;;;;;;5040135;28;20388;-89
2023/10/25 10:39:10;;;;;;;22.30;17.63;;;16.70;99.90;;;;;;5038167;28;20641;-89
2023/10/25 10:41:36;;;;;;;21.65;16.15;;;16.60;99.90;;;;;;5020535;28;20096;-89
2023/10/25 10:44:02;;;;;;;22.27;17.33;;;16.60;99.90;;;;;;5034204;28;20033;-89
2023/10/25 10:46:30;;;;;;;19.40;17.13;;;16.60;99.90;;;;;;5037204;28;20116;-89
2023/10/25 10:49:00;;;;;;;22.83;16.95;;;16.60;99.90;;;;;;5039667;28;20484;-88
2023/10/25 10:51:27;;;;;;;21.38;17.85;;;16.60;99.90;;;;;;5037728;28;20030;-89
2023/10/25 10:53:53;;;;;;;23.77;17.20;;;16.60;99.90;;;;;;5123740;27;20102;-88
2023/10/25 10:56:19;;;;;;;22.17;17.20;;;16.50;99.90;;;;;;5039107;28;20021;-90
2023/10/25 10:58:45;;;;;;;20.25;16.83;;;16.50;99.90;;;;;;5037765;28;20392;-89
2023/10/25 11:01:11;;;;;;;22.27;17.23;;;16.60;99.90;;;;;;5037926;28;20480;-89
2023/10/25 11:03:37;;;;;;;22.85;17.52;;;16.50;99.90;;;;;;5038073;28;20131;-90
2023/10/25 11:06:04;;;;;;;18.70;15.65;;;16.50;99.90;;;;;;5035956;28;20112;-89
2023/10/25 11:08:32;;;;;;;23.88;16.25;;;16.40;99.90;;;;;;5036388;28;20083;-83
2023/10/25 11:10:58;;;;;;;20.35;16.08;;;16.40;99.90;;;;;;5039887;28;20025;-88
2023/10/25 11:13:24;;;;;;;20.20;16.83;;;16.40;99.90;;;;;;5037871;28;20017;-88
2023/10/25 11:16:03;;;;;;;18.80;16.13;;;16.40;99.90;;;;;;5035152;28;20040;-89
2023/10/25 11:18:29;;;;;;;17.20;15.02;;;16.40;99.90;;;;;;5052015;28;20080;-89
2023/10/25 11:20:54;;;;;;;22.67;15.68;;;16.40;99.90;;;;;;5122963;27;20037;-88
2023/10/25 11:23:20;;;;;;;22.40;16.95;;;16.50;99.90;;;;;;5039491;28;20029;-89
2023/10/25 11:25:46;;;;;;;20.35;16.50;;;16.50;99.90;;;;;;5036950;28;20030;-89
2023/10/25 11:28:12;;;;;;;19.25;16.65;;;16.60;99.90;;;;;;5037256;28;20058;-89
2023/10/25 11:30:40;;;;;;;21.92;16.05;;;16.60;99.90;;;;;;5035117;28;20061;-89
2023/10/25 11:33:08;;;;;;;21.30;16.60;;;16.50;99.90;;;;;;5034187;28;20025;-89
2023/10/25 11:35:35;;;;;;;24.25;17.02;;;16.60;99.90;;;;;;5036765;28;20030;-88
2023/10/25 11:38:01;;;;;;;19.50;16.17;;;16.60;99.90;;;;;;5038755;28;20659;-89
2023/10/25 11:40:46;;;;;;;18.63;15.70;;;16.70;99.90;;;;;;5038451;28;20024;-88
2023/10/25 11:43:13;;;;;;;24.50;16.48;;;16.70;99.90;;;;;;5035046;28;20018;-89
2023/10/25 11:45:40;;;;;;;19.65;15.27;;;16.70;99.90;;;;;;5035513;28;20078;-89
2023/10/25 11:48:08;;;;;;;16.88;15.15;;;16.70;99.90;;;;;;5039683;28;20088;-89
2023/10/25 11:50:34;;;;;;;21.15;16.10;;;16.70;99.90;;;;;;5038816;28;20025;-89
2023/10/25 11:53:00;;;;;;;18.23;15.63;;;16.70;99.90;;;;;;5037315;28;20053;-89
2023/10/25 11:55:27;;;;;;;17.88;15.90;;;16.70;99.90;;;;;;5039643;28;20074;-88
2023/10/25 11:57:53;;;;;;;19.27;15.95;;;16.80;99.90;;;;;;5039121;28;20093;-89
2023/10/25 12:00:19;;;;;;;18.27;15.73;;;16.90;99.90;;;;;;5038775;28;20477;-89
2023/10/25 12:02:45;;;;;;;21.42;17.08;;;16.90;99.90;;;;;;5041694;28;20055;-89
2023/10/25 12:05:12;;;;;;;19.35;16.85;;;16.90;99.90;;;;;;5040012;28;20544;-89
2023/10/25 12:07:38;;;;;;;20.25;16.92;;;16.90;99.90;;;;;;5041006;28;20056;-89
2023/10/25 12:10:04;;;;;;;21.10;17.30;;;17.00;99.90;;;;;;5035481;28;20045;-89
2023/10/25 12:12:30;;;;;;;23.17;17.08;;;17.00;99.90;;;;;;5040829;28;20036;-89
2023/10/25 12:14:56;;;;;;;22.02;17.35;;;17.00;99.90;;;;;;5039759;28;20068;-89
2023/10/25 12:17:22;;;;;;;23.80;17.70;;;17.10;99.90;;;;;;5034456;28;20031;-89
2023/10/25 12:19:50;;;;;;;21.98;18.13;;;17.10;99.90;;;;;;5037641;28;20013;-89
2023/10/25 12:22:17;;;;;;;23.63;18.42;;;17.10;99.90;;;;;;5036104;28;20069;-89
2023/10/25 12:24:44;;;;;;;22.92;18.10;;;17.10;99.90;;;;;;5034901;28;20036;-88
2023/10/25 12:27:11;;;;;;;25.88;18.95;;;17.10;99.90;;;;;;5034646;28;20025;-88
2023/10/25 12:29:37;;;;;;;21.17;17.75;;;17.10;99.90;;;;;;5038445;28;20021;-89
2023/10/25 12:32:06;;;;;;;26.65;19.75;;;17.10;99.90;;;;;;5035472;28;20473;-90
2023/10/25 12:34:32;;;;;;;27.30;19.42;;;17.10;99.90;;;;;;5036667;28;20021;-89
2023/10/25 12:36:58;;;;;;;27.20;19.08;;;17.10;99.90;;;;;;5036517;28;20037;-89
2023/10/25 12:39:23;;;;;;;22.35;18.98;;;17.10;99.90;;;;;;5037867;28;20025;-88